Time;durP1;ratioP1;P1;durP2;ratioP2;P2;SDS_P1;SDS_P2;PMS_P1;PMS_P2;Temp;Humidity;BMP_temperature;BMP_pressure;BME280_temperature;BME280_humidity;BME280_pressure;Samples;Min_cycle;Max_cycle;Signal;HPM_P1;HPM_P2
2023/02/06 00:00:22;;;;;;;9.98;9.68;;;;;;;;;;4197983;28;20286;-92
2023/02/06 00:02:42;;;;;;;7.97;7.82;;;;;;;;;;4198487;28;20108;-93
2023/02/06 00:05:03;;;;;;;9.55;9.43;;;;;;;;;;4200432;28;20087;-93
2023/02/06 00:07:23;;;;;;;7.90;7.47;;;;;;;;;;4199042;28;20514;-93
2023/02/06 00:09:43;;;;;;;8.95;8.85;;;;;;;;;;4198248;28;20047;-93
2023/02/06 00:12:03;;;;;;;8.60;8.45;;;;;;;;;;4196698;28;20048;-93
2023/02/06 00:14:23;;;;;;;8.35;8.05;;;;;;;;;;4198272;28;20047;-93
2023/02/06 00:16:44;;;;;;;9.05;8.85;;;;;;;;;;4198512;28;20447;-93
2023/02/06 00:19:04;;;;;;;7.78;7.68;;;;;;;;;;4208683;28;20043;-92
2023/02/06 00:21:25;;;;;;;7.75;7.63;;;;;;;;;;4199252;28;20044;-93
2023/02/06 00:23:46;;;;;;;7.25;7.15;;;;;;;;;;4198010;28;20068;-92
2023/02/06 00:26:07;;;;;;;7.90;7.80;;;;;;;;;;4194524;28;20105;-92
2023/02/06 00:28:28;;;;;;;8.52;8.43;;;;;;;;;;4196817;28;20117;-92
2023/02/06 00:30:48;;;;;;;7.65;7.47;;;;;;;;;;4216289;28;20079;-93
2023/02/06 00:33:08;;;;;;;8.25;8.15;;;;;;;;;;4209722;28;20059;-92
2023/02/06 00:35:28;;;;;;;9.07;8.50;;;;;;;;;;4201531;28;20063;-92
2023/02/06 00:37:49;;;;;;;8.32;8.02;;;;;;;;;;4202368;28;20083;-92
2023/02/06 00:40:09;;;;;;;7.30;7.20;;;;;;;;;;4207749;28;20369;-92
2023/02/06 00:42:29;;;;;;;8.52;8.23;;;;;;;;;;4200709;28;20240;-93
2023/02/06 00:44:50;;;;;;;7.28;7.18;;;;;;;;;;4204917;28;20123;-92
2023/02/06 00:47:10;;;;;;;8.30;8.10;;;;;;;;;;4202880;28;20052;-92
2023/02/06 00:49:30;;;;;;;8.07;7.97;;;;;;;;;;4202424;28;20040;-91
2023/02/06 00:51:50;;;;;;;9.52;9.32;;;;;;;;;;4200868;28;20138;-92
2023/02/06 00:54:10;;;;;;;7.82;7.70;;;;;;;;;;4197241;28;20068;-92
2023/02/06 00:56:31;;;;;;;7.25;7.25;;;;;;;;;;4198538;28;20251;-92
2023/02/06 00:58:51;;;;;;;8.68;8.48;;;;;;;;;;4199022;28;20063;-93
2023/02/06 01:01:11;;;;;;;8.30;8.20;;;;;;;;;;4202090;28;20083;-92
2023/02/06 01:03:31;;;;;;;9.45;9.35;;;;;;;;;;4196206;28;20072;-93
2023/02/06 01:05:51;;;;;;;8.88;8.73;;;;;;;;;;4194902;28;20048;-92
2023/02/06 01:08:11;;;;;;;8.18;8.07;;;;;;;;;;4203992;28;20048;-92
2023/02/06 01:10:32;;;;;;;8.57;8.48;;;;;;;;;;4195835;28;20044;-92
2023/02/06 01:12:52;;;;;;;8.98;8.80;;;;;;;;;;4200304;28;20052;-92
2023/02/06 01:15:12;;;;;;;10.05;9.60;;;;;;;;;;4200664;28;20097;-91
2023/02/06 01:17:33;;;;;;;8.60;8.50;;;;;;;;;;4216392;28;20086;-92
2023/02/06 01:19:53;;;;;;;7.93;7.82;;;;;;;;;;4214534;28;20300;-92
2023/02/06 01:22:14;;;;;;;7.18;7.13;;;;;;;;;;4201547;28;20396;-93
2023/02/06 01:24:34;;;;;;;8.10;8.00;;;;;;;;;;4211734;28;20043;-92
2023/02/06 01:26:54;;;;;;;8.07;7.88;;;;;;;;;;4216229;28;20083;-93
2023/02/06 01:29:15;;;;;;;8.95;8.85;;;;;;;;;;4195460;28;20292;-92
2023/02/06 01:31:35;;;;;;;9.00;8.90;;;;;;;;;;4201015;28;20083;-92
2023/02/06 01:33:56;;;;;;;9.05;8.95;;;;;;;;;;4203389;28;20056;-92
2023/02/06 01:36:17;;;;;;;8.48;8.27;;;;;;;;;;4198321;28;20051;-92
2023/02/06 01:38:38;;;;;;;9.80;9.70;;;;;;;;;;4197770;28;20119;-91
2023/02/06 01:41:00;;;;;;;8.38;8.23;;;;;;;;;;4199435;28;20071;-92
2023/02/06 01:43:20;;;;;;;8.02;7.93;;;;;;;;;;4199032;28;20085;-93
2023/02/06 01:45:42;;;;;;;9.00;8.85;;;;;;;;;;4212157;28;20059;-92
2023/02/06 01:48:05;;;;;;;7.72;7.63;;;;;;;;;;4197627;28;20066;-91
2023/02/06 01:50:25;;;;;;;8.00;7.90;;;;;;;;;;4217237;28;20054;-92
2023/02/06 01:52:46;;;;;;;8.75;8.57;;;;;;;;;;4198856;28;20067;-91
2023/02/06 01:55:07;;;;;;;8.48;8.18;;;;;;;;;;4201876;28;20233;-91
2023/02/06 01:57:27;;;;;;;10.95;10.70;;;;;;;;;;4197441;28;20068;-92
2023/02/06 01:59:51;;;;;;;9.07;8.98;;;;;;;;;;4212745;28;20079;-92
2023/02/06 02:02:12;;;;;;;8.10;7.90;;;;;;;;;;4196911;28;20047;-93
2023/02/06 02:04:33;;;;;;;10.00;9.90;;;;;;;;;;4214973;28;20055;-92
2023/02/06 02:07:04;;;;;;;8.50;8.30;;;;;;;;;;4198042;28;20275;-92
2023/02/06 02:09:24;;;;;;;7.10;6.90;;;;;;;;;;4195193;28;20358;-91
2023/02/06 02:11:45;;;;;;;7.90;7.78;;;;;;;;;;4199153;28;20063;-91
2023/02/06 02:14:07;;;;;;;7.50;7.40;;;;;;;;;;4197398;28;20236;-92
2023/02/06 02:16:48;;;;;;;8.65;8.55;;;;;;;;;;4195913;28;20087;-91
2023/02/06 02:19:27;;;;;;;9.68;9.38;;;;;;;;;;4198331;28;20047;-91
2023/02/06 02:21:53;;;;;;;7.88;7.78;;;;;;;;;;4213757;28;20086;-91
2023/02/06 02:24:19;;;;;;;7.68;7.57;;;;;;;;;;4199508;28;20044;-92
2023/02/06 02:26:58;;;;;;;7.82;7.72;;;;;;;;;;4198116;28;20086;-92
2023/02/06 02:29:34;;;;;;;6.38;6.30;;;;;;;;;;4198908;28;20060;-91
2023/02/06 02:32:14;;;;;;;6.63;6.53;;;;;;;;;;4205588;28;20055;-92
2023/02/06 02:34:53;;;;;;;8.07;7.97;;;;;;;;;;4197228;28;20043;-92
2023/02/06 02:37:26;;;;;;;7.03;6.72;;;;;;;;;;4214891;28;20047;-92
2023/02/06 02:39:52;;;;;;;8.40;8.25;;;;;;;;;;4197368;28;20051;-93
2023/02/06 02:42:15;;;;;;;8.73;8.52;;;;;;;;;;4215321;28;20082;-91
2023/02/06 02:44:54;;;;;;;8.07;7.90;;;;;;;;;;4211495;28;20122;-92
2023/02/06 02:47:15;;;;;;;8.05;7.88;;;;;;;;;;4211599;28;20042;-92
2023/02/06 02:49:37;;;;;;;8.50;8.40;;;;;;;;;;4211656;28;20362;-92
2023/02/06 02:51:58;;;;;;;7.53;7.43;;;;;;;;;;4196445;28;20047;-92
2023/02/06 02:54:18;;;;;;;7.97;7.80;;;;;;;;;;4192435;28;20039;-92
2023/02/06 02:56:39;;;;;;;7.60;7.40;;;;;;;;;;4202320;28;20060;-92
2023/02/06 02:59:04;;;;;;;7.88;7.57;;;;;;;;;;4200564;28;20112;-92
2023/02/06 03:01:30;;;;;;;7.70;7.50;;;;;;;;;;4198588;28;20071;-92
2023/02/06 03:03:52;;;;;;;7.70;7.55;;;;;;;;;;4194360;28;20256;-93
2023/02/06 03:06:13;;;;;;;8.15;7.85;;;;;;;;;;4193740;28;20044;-92
2023/02/06 03:08:59;;;;;;;7.28;7.18;;;;;;;;;;4195677;28;20051;-92
2023/02/06 03:11:20;;;;;;;9.00;8.65;;;;;;;;;;4191726;28;20071;-91
2023/02/06 03:13:51;;;;;;;9.05;8.80;;;;;;;;;;4201814;28;20063;-92
2023/02/06 03:16:11;;;;;;;9.77;9.68;;;;;;;;;;4198061;28;20072;-92
2023/02/06 03:18:35;;;;;;;9.25;9.15;;;;;;;;;;4195242;28;20064;-92
2023/02/06 03:20:56;;;;;;;10.32;10.13;;;;;;;;;;4195870;28;20044;-92
2023/02/06 03:23:19;;;;;;;10.95;10.75;;;;;;;;;;4200634;28;20047;-92
2023/02/06 03:25:41;;;;;;;9.65;9.38;;;;;;;;;;4197992;28;20044;-92
2023/02/06 03:28:02;;;;;;;8.80;8.55;;;;;;;;;;4194882;28;20071;-92
2023/02/06 03:30:23;;;;;;;9.18;9.07;;;;;;;;;;4203959;28;20375;-92
2023/02/06 03:32:46;;;;;;;9.07;8.55;;;;;;;;;;4201857;28;20094;-93
2023/02/06 03:35:17;;;;;;;7.18;7.07;;;;;;;;;;4201034;28;20043;-92
2023/02/06 03:37:38;;;;;;;9.48;9.27;;;;;;;;;;4210833;28;20054;-92
2023/02/06 03:40:00;;;;;;;7.22;6.93;;;;;;;;;;4201574;28;20051;-92
2023/02/06 03:42:21;;;;;;;8.37;8.23;;;;;;;;;;4197190;28;20293;-93
2023/02/06 03:44:44;;;;;;;8.07;7.97;;;;;;;;;;4201186;28;20091;-93
2023/02/06 03:47:04;;;;;;;;;;;;;;;;;;4216785;28;20048;-92
2023/02/06 03:49:27;;;;;;;7.95;7.85;;;;;;;;;;4205027;28;20293;-93
2023/02/06 03:51:50;;;;;;;7.93;7.83;;;;;;;;;;4201230;28;20056;-92
2023/02/06 03:54:11;;;;;;;8.77;8.68;;;;;;;;;;4198227;28;20277;-92
2023/02/06 03:56:31;;;;;;;9.20;9.00;;;;;;;;;;4198692;28;20051;-92
2023/02/06 03:58:51;;;;;;;11.35;11.10;;;;;;;;;;4213171;28;20078;-92
2023/02/06 04:01:12;;;;;;;15.18;14.88;;;;;;;;;;4200689;28;20109;-92
2023/02/06 04:03:32;;;;;;;19.45;19.15;;;;;;;;;;4214331;28;20051;-92
2023/02/06 04:05:52;;;;;;;17.65;16.80;;;;;;;;;;4197417;28;20118;-92
2023/02/06 04:08:12;;;;;;;12.85;12.73;;;;;;;;;;4198501;28;20333;-92
2023/02/06 04:10:33;;;;;;;10.55;10.35;;;;;;;;;;4199392;28;20044;-92
2023/02/06 04:12:53;;;;;;;14.98;14.68;;;;;;;;;;4213289;28;20066;-92
2023/02/06 04:15:13;;;;;;;19.55;19.17;;;;;;;;;;4215314;28;20077;-93
2023/02/06 04:17:34;;;;;;;23.67;22.98;;;;;;;;;;4214953;28;20063;-93
2023/02/06 04:20:14;;;;;;;12.02;11.73;;;;;;;;;;4207187;28;20046;-92
2023/02/06 04:22:35;;;;;;;13.15;12.95;;;;;;;;;;4200036;28;20043;-92
2023/02/06 04:24:55;;;;;;;23.00;22.70;;;;;;;;;;4211174;28;20087;-92
2023/02/06 04:27:16;;;;;;;21.15;20.88;;;;;;;;;;4212603;28;20122;-92
2023/02/06 04:29:36;;;;;;;16.33;16.13;;;;;;;;;;4199199;28;20078;-92
2023/02/06 04:32:01;;;;;;;20.08;19.77;;;;;;;;;;4202433;28;20052;-92
2023/02/06 04:34:21;;;;;;;14.52;14.32;;;;;;;;;;4214930;28;20038;-93
2023/02/06 04:36:41;;;;;;;17.65;17.42;;;;;;;;;;4212399;28;20081;-92
2023/02/06 04:39:01;;;;;;;24.42;23.92;;;;;;;;;;4217016;28;20077;-92
2023/02/06 04:41:21;;;;;;;29.10;28.40;;;;;;;;;;4202964;28;20426;-92
2023/02/06 04:43:42;;;;;;;30.15;29.27;;;;;;;;;;4203838;28;20044;-92
2023/02/06 04:46:02;;;;;;;25.02;24.60;;;;;;;;;;4211623;28;20047;-92
2023/02/06 04:48:22;;;;;;;12.23;11.95;;;;;;;;;;4213587;28;20039;-92
2023/02/06 04:50:42;;;;;;;11.25;11.13;;;;;;;;;;4216789;28;20059;-92
2023/02/06 04:53:02;;;;;;;11.85;11.73;;;;;;;;;;4201544;28;20155;-92
2023/02/06 04:55:23;;;;;;;12.30;12.20;;;;;;;;;;4198054;28;20366;-92
2023/02/06 04:57:43;;;;;;;11.32;11.23;;;;;;;;;;4210381;28;20090;-91
2023/02/06 05:00:04;;;;;;;9.05;8.85;;;;;;;;;;4212786;28;20059;-92
2023/02/06 05:02:24;;;;;;;9.65;9.55;;;;;;;;;;4200938;28;20496;-92
2023/02/06 05:04:45;;;;;;;16.88;16.77;;;;;;;;;;4202070;28;20055;-93
2023/02/06 05:07:05;;;;;;;11.38;11.25;;;;;;;;;;4207007;28;20062;-92
2023/02/06 05:09:26;;;;;;;10.95;10.85;;;;;;;;;;4212760;28;20040;-92
2023/02/06 05:11:46;;;;;;;10.15;9.88;;;;;;;;;;4198198;28;20048;-92
2023/02/06 05:14:06;;;;;;;12.93;12.43;;;;;;;;;;4203813;28;20102;-92
2023/02/06 05:16:27;;;;;;;21.75;20.88;;;;;;;;;;4198649;28;20079;-91
2023/02/06 05:18:47;;;;;;;15.05;14.57;;;;;;;;;;4210761;28;20042;-93
2023/02/06 05:21:07;;;;;;;8.70;8.60;;;;;;;;;;4215430;28;20056;-92
2023/02/06 05:23:28;;;;;;;19.90;19.63;;;;;;;;;;4209678;28;20279;-91
2023/02/06 05:25:48;;;;;;;21.23;20.90;;;;;;;;;;4195691;28;20060;-91
2023/02/06 05:28:08;;;;;;;22.02;21.63;;;;;;;;;;4211248;28;20055;-92
2023/02/06 05:30:29;;;;;;;22.65;22.15;;;;;;;;;;4200077;28;20096;-92
2023/02/06 05:32:49;;;;;;;17.13;16.90;;;;;;;;;;4199108;28;20055;-92
2023/02/06 05:35:10;;;;;;;16.80;16.40;;;;;;;;;;4214288;28;20078;-92
2023/02/06 05:37:30;;;;;;;21.58;21.17;;;;;;;;;;4200841;28;20075;-92
2023/02/06 05:39:50;;;;;;;17.38;17.08;;;;;;;;;;4210612;28;20047;-92
2023/02/06 05:42:10;;;;;;;11.52;11.32;;;;;;;;;;4211882;28;20054;-92
2023/02/06 05:44:31;;;;;;;8.43;8.32;;;;;;;;;;4200237;28;20071;-92
2023/02/06 05:46:51;;;;;;;8.45;8.15;;;;;;;;;;4212030;28;20051;-92
2023/02/06 05:49:11;;;;;;;10.27;10.07;;;;;;;;;;4199861;28;20079;-91
2023/02/06 05:51:32;;;;;;;15.00;14.60;;;;;;;;;;4196028;28;20116;-92
2023/02/06 05:53:52;;;;;;;14.98;14.77;;;;;;;;;;4198541;28;20233;-92
2023/02/06 05:56:13;;;;;;;17.00;16.33;;;;;;;;;;4214541;28;20050;-92
2023/02/06 05:58:33;;;;;;;18.88;18.55;;;;;;;;;;4212197;28;20047;-92
2023/02/06 06:00:53;;;;;;;28.25;27.38;;;;;;;;;;4200369;28;20044;-92
2023/02/06 06:03:14;;;;;;;25.02;24.42;;;;;;;;;;4191867;28;20087;-92
2023/02/06 06:05:34;;;;;;;13.05;12.95;;;;;;;;;;4199504;28;20064;-92
2023/02/06 06:07:55;;;;;;;25.25;24.80;;;;;;;;;;4207020;28;20088;-92
2023/02/06 06:10:15;;;;;;;12.07;11.88;;;;;;;;;;4200339;28;20059;-92
2023/02/06 06:12:36;;;;;;;18.80;18.42;;;;;;;;;;4197633;28;20048;-93
2023/02/06 06:14:56;;;;;;;12.93;12.70;;;;;;;;;;4208610;28;20078;-92
2023/02/06 06:17:17;;;;;;;15.57;15.27;;;;;;;;;;4215734;28;20051;-92
2023/02/06 06:19:37;;;;;;;18.92;18.52;;;;;;;;;;4214935;28;20050;-92
2023/02/06 06:21:57;;;;;;;9.25;9.15;;;;;;;;;;4211822;28;20403;-92
2023/02/06 06:24:18;;;;;;;7.95;7.85;;;;;;;;;;4197001;28;20040;-90
2023/02/06 06:26:38;;;;;;;7.45;7.25;;;;;;;;;;4198800;28;20357;-87
2023/02/06 06:28:58;;;;;;;8.15;7.88;;;;;;;;;;4197466;28;20086;-88
2023/02/06 06:31:18;;;;;;;7.20;6.90;;;;;;;;;;4199442;28;20094;-87
2023/02/06 06:33:39;;;;;;;8.23;8.02;;;;;;;;;;4211982;28;20232;-88
2023/02/06 06:35:59;;;;;;;9.05;8.90;;;;;;;;;;4197778;28;20156;-87
2023/02/06 06:38:19;;;;;;;8.85;8.50;;;;;;;;;;4200385;28;20044;-88
2023/02/06 06:40:40;;;;;;;8.10;8.00;;;;;;;;;;4199783;28;20363;-88
2023/02/06 06:43:01;;;;;;;7.10;7.00;;;;;;;;;;4213642;28;20075;-88
2023/02/06 06:45:21;;;;;;;8.82;8.63;;;;;;;;;;4195880;28;20252;-88
2023/02/06 06:47:41;;;;;;;8.48;8.30;;;;;;;;;;4193518;28;20099;-88
2023/02/06 06:50:01;;;;;;;9.65;9.25;;;;;;;;;;4210797;28;20081;-88
2023/02/06 06:52:22;;;;;;;8.35;8.02;;;;;;;;;;4215485;28;20742;-87
2023/02/06 06:54:45;;;;;;;;;;;;;;;;;;4198288;28;20441;-88
2023/02/06 06:57:05;;;;;;;8.40;8.30;;;;;;;;;;4211151;28;19938;-88
2023/02/06 06:59:25;;;;;;;7.53;7.32;;;;;;;;;;4196248;28;20066;-88
2023/02/06 07:01:47;;;;;;;8.98;8.88;;;;;;;;;;4194272;28;20047;-88
2023/02/06 07:04:08;;;;;;;8.35;8.25;;;;;;;;;;4216972;28;20378;-88
2023/02/06 07:06:28;;;;;;;11.52;11.23;;;;;;;;;;4210772;28;20046;-88
2023/02/06 07:08:48;;;;;;;9.10;8.65;;;;;;;;;;4215701;28;20260;-88
2023/02/06 07:11:09;;;;;;;8.63;8.40;;;;;;;;;;4214216;28;20402;-88
2023/02/06 07:13:29;;;;;;;10.05;9.77;;;;;;;;;;4199111;28;20039;-88
2023/02/06 07:15:49;;;;;;;10.23;9.73;;;;;;;;;;4209572;28;20066;-88
2023/02/06 07:18:09;;;;;;;7.45;7.25;;;;;;;;;;4197506;28;20048;-88
2023/02/06 07:20:31;;;;;;;8.50;8.40;;;;;;;;;;4196142;28;20058;-88
2023/02/06 07:22:52;;;;;;;8.63;8.32;;;;;;;;;;4199297;28;20052;-88
2023/02/06 07:25:13;;;;;;;9.65;9.45;;;;;;;;;;4213269;28;20108;-88
2023/02/06 07:27:33;;;;;;;12.05;11.50;;;;;;;;;;4204798;28;20075;-88
2023/02/06 07:29:53;;;;;;;12.18;11.15;;;;;;;;;;4196911;28;20128;-88
2023/02/06 07:32:13;;;;;;;11.30;10.77;;;;;;;;;;4216784;28;20163;-89
2023/02/06 07:34:36;;;;;;;10.23;10.07;;;;;;;;;;4212372;28;20109;-88
2023/02/06 07:36:58;;;;;;;10.35;9.93;;;;;;;;;;4200494;28;20167;-88
2023/02/06 07:39:19;;;;;;;8.23;8.05;;;;;;;;;;4197363;28;20044;-88
2023/02/06 07:41:39;;;;;;;9.57;9.25;;;;;;;;;;4206743;28;20120;-88
2023/02/06 07:43:59;;;;;;;9.30;8.93;;;;;;;;;;4196617;28;20044;-88
2023/02/06 07:46:19;;;;;;;8.07;7.88;;;;;;;;;;4212947;28;20408;-88
2023/02/06 07:48:39;;;;;;;19.92;18.92;;;;;;;;;;4199542;28;20048;-88
2023/02/06 07:51:04;;;;;;;15.82;14.98;;;;;;;;;;4213220;28;20063;-88
2023/02/06 07:53:24;;;;;;;7.32;7.03;;;;;;;;;;4193404;28;20048;-88
2023/02/06 07:55:45;;;;;;;6.63;6.43;;;;;;;;;;4216525;28;20412;-88
2023/02/06 07:58:05;;;;;;;7.10;6.82;;;;;;;;;;4199385;28;20469;-88
2023/02/06 08:00:25;;;;;;;8.18;8.07;;;;;;;;;;4207721;28;20043;-88
2023/02/06 08:02:45;;;;;;;7.35;7.25;;;;;;;;;;4212189;28;20071;-88
2023/02/06 08:05:05;;;;;;;7.68;7.45;;;;;;;;;;4195156;28;20418;-88
2023/02/06 08:07:26;;;;;;;7.10;6.90;;;;;;;;;;4194392;28;20275;-88
2023/02/06 08:09:46;;;;;;;11.63;11.07;;;;;;;;;;4199116;28;20052;-88
2023/02/06 08:12:06;;;;;;;7.80;7.50;;;;;;;;;;4197746;28;20067;-88
2023/02/06 08:14:27;;;;;;;6.70;6.60;;;;;;;;;;4194218;28;20374;-89
2023/02/06 08:16:48;;;;;;;7.20;7.10;;;;;;;;;;4201268;28;20102;-88
2023/02/06 08:19:11;;;;;;;10.25;9.88;;;;;;;;;;4196567;28;20067;-88
2023/02/06 08:21:32;;;;;;;6.30;6.10;;;;;;;;;;4199150;28;20229;-88
2023/02/06 08:23:59;;;;;;;7.35;7.07;;;;;;;;;;4203430;28;20048;-88
2023/02/06 08:26:20;;;;;;;7.32;7.22;;;;;;;;;;4212971;28;20047;-88
2023/02/06 08:28:41;;;;;;;5.53;5.53;;;;;;;;;;4195922;28;20090;-88
2023/02/06 08:31:08;;;;;;;7.68;7.50;;;;;;;;;;4196330;28;20252;-90
2023/02/06 08:33:28;;;;;;;6.63;6.53;;;;;;;;;;4212017;28;20048;-90
2023/02/06 08:35:49;;;;;;;5.63;5.43;;;;;;;;;;4198535;28;20047;-90
2023/02/06 08:38:09;;;;;;;6.38;6.25;;;;;;;;;;4192982;28;20113;-89
2023/02/06 08:40:29;;;;;;;7.63;7.47;;;;;;;;;;4194875;28;20051;-89
2023/02/06 08:42:50;;;;;;;7.35;6.90;;;;;;;;;;4198934;28;20051;-90
2023/02/06 08:45:10;;;;;;;6.75;6.45;;;;;;;;;;4195617;28;20081;-89
2023/02/06 08:47:30;;;;;;;8.15;7.93;;;;;;;;;;4212918;28;20055;-89
2023/02/06 08:49:51;;;;;;;7.10;7.00;;;;;;;;;;4196982;28;20094;-89
2023/02/06 08:52:10;;;;;;;6.70;6.38;;;;;;;;;;4196599;28;20167;-90
2023/02/06 08:54:30;;;;;;;6.28;6.18;;;;;;;;;;4202866;28;20059;-90
2023/02/06 08:56:59;;;;;;;7.20;6.97;;;;;;;;;;4211584;28;20228;-89
2023/02/06 08:59:20;;;;;;;5.32;5.13;;;;;;;;;;4195902;28;20082;-89
2023/02/06 09:01:40;;;;;;;7.35;6.85;;;;;;;;;;4215201;28;20052;-89
2023/02/06 09:04:01;;;;;;;5.38;5.28;;;;;;;;;;4214546;28;20047;-89
2023/02/06 09:06:22;;;;;;;6.50;6.30;;;;;;;;;;4212651;28;20051;-90
2023/02/06 09:08:43;;;;;;;5.70;5.40;;;;;;;;;;4218244;28;20401;-90
2023/02/06 09:11:17;;;;;;;5.63;5.53;;;;;;;;;;4211803;28;20079;-91
2023/02/06 09:13:38;;;;;;;7.80;7.45;;;;;;;;;;4211604;28;20051;-91
2023/02/06 09:15:58;;;;;;;7.18;6.97;;;;;;;;;;4201176;28;20311;-91
2023/02/06 09:18:18;;;;;;;8.35;8.05;;;;;;;;;;4214771;28;20035;-90
2023/02/06 09:20:39;;;;;;;8.75;8.60;;;;;;;;;;4214985;28;20149;-90
2023/02/06 09:22:59;;;;;;;8.52;8.07;;;;;;;;;;4203178;28;20131;-90
2023/02/06 09:25:19;;;;;;;8.52;8.23;;;;;;;;;;4198894;28;20044;-91
2023/02/06 09:27:39;;;;;;;7.15;6.95;;;;;;;;;;4200170;28;20102;-90
2023/02/06 09:30:00;;;;;;;7.43;7.03;;;;;;;;;;4196368;28;20063;-91
2023/02/06 09:32:20;;;;;;;6.80;6.68;;;;;;;;;;4215569;28;20116;-90
2023/02/06 09:34:40;;;;;;;7.65;7.22;;;;;;;;;;4196313;28;20043;-90
2023/02/06 09:37:01;;;;;;;7.35;6.85;;;;;;;;;;4214833;28;20051;-91
2023/02/06 09:39:22;;;;;;;8.73;8.15;;;;;;;;;;4213589;28;20330;-89
2023/02/06 09:41:44;;;;;;;7.65;7.20;;;;;;;;;;4214319;28;20118;-90
2023/02/06 09:44:10;;;;;;;6.70;6.50;;;;;;;;;;4194184;28;20051;-90
2023/02/06 09:46:31;;;;;;;7.20;7.00;;;;;;;;;;4202251;28;20067;-90
2023/02/06 09:48:53;;;;;;;10.57;10.07;;;;;;;;;;4199853;28;20082;-91
2023/02/06 09:51:32;;;;;;;8.65;8.43;;;;;;;;;;4213198;28;20089;-90
2023/02/06 09:53:55;;;;;;;9.60;9.10;;;;;;;;;;4199128;28;20052;-90
2023/02/06 09:56:15;;;;;;;;;;;;;;;;;;4199473;28;20046;-91
2023/02/06 09:58:43;;;;;;;7.28;6.90;;;;;;;;;;4191948;28;20235;-90
2023/02/06 10:01:27;;;;;;;11.57;10.75;;;;;;;;;;4216817;28;20063;-90
2023/02/06 10:03:54;;;;;;;7.20;7.05;;;;;;;;;;4215779;28;20093;-90
2023/02/06 10:06:18;;;;;;;7.45;6.95;;;;;;;;;;4210361;28;20047;-90
2023/02/06 10:08:48;;;;;;;7.05;6.57;;;;;;;;;;4214954;28;20405;-90
2023/02/06 10:11:17;;;;;;;7.30;7.10;;;;;;;;;;4204343;28;20477;-90
2023/02/06 10:13:40;;;;;;;4.65;4.55;;;;;;;;;;4210747;28;20101;-90
2023/02/06 10:16:05;;;;;;;6.00;5.53;;;;;;;;;;4212072;28;20063;-90
2023/02/06 10:18:35;;;;;;;7.32;7.13;;;;;;;;;;4210704;28;20377;-90
2023/02/06 10:20:58;;;;;;;6.95;6.40;;;;;;;;;;4199131;28;20036;-90
2023/02/06 10:23:38;;;;;;;4.97;4.38;;;;;;;;;;4195232;28;20094;-90
2023/02/06 10:26:05;;;;;;;4.22;4.22;;;;;;;;;;4212206;28;20094;-91
2023/02/06 10:28:29;;;;;;;5.15;4.85;;;;;;;;;;4209612;28;20047;-92
2023/02/06 10:31:05;;;;;;;6.20;5.85;;;;;;;;;;4202263;28;20279;-91
2023/02/06 10:33:48;;;;;;;5.38;5.28;;;;;;;;;;4200589;28;20074;-92
2023/02/06 10:36:18;;;;;;;6.13;6.03;;;;;;;;;;4200579;28;20378;-91
2023/02/06 10:38:50;;;;;;;6.10;5.88;;;;;;;;;;4198052;28;20040;-90
2023/02/06 10:41:26;;;;;;;6.97;6.77;;;;;;;;;;4200447;28;20055;-91
2023/02/06 10:43:56;;;;;;;7.32;6.88;;;;;;;;;;4212535;28;20228;-91
2023/02/06 10:46:21;;;;;;;4.78;4.68;;;;;;;;;;4216602;28;20082;-91
2023/02/06 10:48:46;;;;;;;5.95;5.85;;;;;;;;;;4212783;28;20116;-90
2023/02/06 10:51:06;;;;;;;6.57;6.38;;;;;;;;;;4197578;28;20059;-91
2023/02/06 10:53:30;;;;;;;5.68;5.18;;;;;;;;;;4213984;28;20112;-91
2023/02/06 10:56:02;;;;;;;7.20;6.82;;;;;;;;;;4210158;28;20051;-90
2023/02/06 10:58:36;;;;;;;6.38;6.18;;;;;;;;;;4214140;28;20047;-92
2023/02/06 11:00:58;;;;;;;7.97;6.70;;;;;;;;;;4193839;28;20056;-91
2023/02/06 11:03:20;;;;;;;6.13;5.72;;;;;;;;;;4198312;28;20112;-90
2023/02/06 11:05:40;;;;;;;6.38;6.03;;;;;;;;;;4213235;28;20082;-91
2023/02/06 11:08:21;;;;;;;6.30;6.00;;;;;;;;;;4197937;28;20413;-92
2023/02/06 11:10:41;;;;;;;8.50;8.20;;;;;;;;;;4200185;28;20052;-90
2023/02/06 11:13:04;;;;;;;7.22;6.97;;;;;;;;;;4199358;28;20103;-91
2023/02/06 11:15:24;;;;;;;13.75;13.02;;;;;;;;;;4213260;28;20235;-90
2023/02/06 11:17:45;;;;;;;7.47;7.28;;;;;;;;;;4207985;28;20086;-91
2023/02/06 11:20:19;;;;;;;8.13;7.82;;;;;;;;;;4209327;28;20051;-90
2023/02/06 11:22:39;;;;;;;5.07;4.97;;;;;;;;;;4215337;28;20070;-91
2023/02/06 11:25:38;;;;;;;6.30;6.03;;;;;;;;;;4213507;28;20051;-90
2023/02/06 11:27:59;;;;;;;6.00;5.47;;;;;;;;;;4198737;28;20047;-90
2023/02/06 11:30:26;;;;;;;5.45;5.35;;;;;;;;;;4204308;28;20128;-90
2023/02/06 11:32:46;;;;;;;6.05;5.95;;;;;;;;;;4196049;28;20052;-91
2023/02/06 11:35:27;;;;;;;6.60;5.93;;;;;;;;;;4209403;28;20266;-91
2023/02/06 11:37:51;;;;;;;5.88;5.68;;;;;;;;;;4213881;28;20128;-90
2023/02/06 11:40:17;;;;;;;6.03;5.50;;;;;;;;;;4199130;28;20078;-91
2023/02/06 11:42:37;;;;;;;5.32;5.00;;;;;;;;;;4213979;28;20506;-90
2023/02/06 11:44:58;;;;;;;5.75;5.50;;;;;;;;;;4212802;28;20047;-92
2023/02/06 11:47:31;;;;;;;5.18;5.07;;;;;;;;;;4211158;28;20098;-90
2023/02/06 11:49:52;;;;;;;5.80;5.60;;;;;;;;;;4207903;28;20403;-90
2023/02/06 11:52:32;;;;;;;6.40;6.28;;;;;;;;;;4199306;28;20106;-91
2023/02/06 11:55:00;;;;;;;5.95;5.85;;;;;;;;;;4199173;28;20398;-90
2023/02/06 11:57:22;;;;;;;5.70;5.55;;;4.20;87.60;;;;;;4210800;28;20055;-91
2023/02/06 11:59:54;;;;;;;5.55;5.32;;;4.60;87.70;;;;;;4209879;28;20042;-91
2023/02/06 12:02:29;;;;;;;4.32;4.30;;;4.60;89.60;;;;;;4195914;28;20060;-91
2023/02/06 12:04:52;;;;;;;6.18;5.82;;;4.80;88.50;;;;;;4218638;28;20046;-91
2023/02/06 12:07:45;;;;;;;5.60;5.32;;;5.20;87.00;;;;;;4210757;28;20043;-92
2023/02/06 12:10:41;;;;;;;7.43;6.97;;;5.40;87.00;;;;;;4148295;28;20103;-91
2023/02/06 12:13:19;;;;;;;5.57;5.38;;;5.20;89.40;;;;;;4155901;28;20073;-91
2023/02/06 12:16:06;;;;;;;5.07;4.93;;;5.60;88.00;;;;;;4156974;28;20052;-91
2023/02/06 12:18:45;;;;;;;6.65;6.35;;;5.50;86.10;;;;;;4160174;28;20396;-91
2023/02/06 12:21:41;;;;;;;5.00;4.70;;;5.80;85.30;;;;;;4158342;28;20088;-91
2023/02/06 12:24:19;;;;;;;4.82;4.63;;;5.50;84.00;;;;;;4103562;29;20094;-91
2023/02/06 12:26:45;;;;;;;3.55;3.45;;;5.60;85.50;;;;;;4088446;29;20377;-91
2023/02/06 12:29:23;;;;;;;;;;;5.30;83.50;;;;;;4106721;29;20091;-91
2023/02/06 12:32:07;;;;;;;4.95;4.82;;;5.40;84.10;;;;;;4099323;29;20007;-90
2023/02/06 12:34:56;;;;;;;4.40;4.30;;;5.40;83.50;;;;;;4103588;29;20046;-90
2023/02/06 12:38:09;;;;;;;5.18;4.28;;;5.80;83.30;;;;;;4094626;29;20267;-90
2023/02/06 12:40:46;;;;;;;5.00;4.80;;;5.70;82.40;;;;;;4143150;28;20461;-88
2023/02/06 12:43:10;;;;;;;5.47;5.07;;;6.00;83.90;;;;;;4137299;28;20037;-89
2023/02/06 12:45:54;;;;;;;4.88;4.78;;;5.70;80.50;;;;;;4150038;28;20053;-88
2023/02/06 12:48:35;;;;;;;4.68;4.35;;;5.50;79.50;;;;;;4137946;28;20181;-89
2023/02/06 12:50:55;;;;;;;4.47;4.47;;;5.10;78.20;;;;;;4141632;28;20151;-89
2023/02/06 12:53:23;;;;;;;4.60;4.60;;;5.40;79.50;;;;;;4135079;28;20230;-89
2023/02/06 12:56:03;;;;;;;5.45;5.20;;;5.40;79.50;;;;;;4151546;28;20289;-88
2023/02/06 12:58:31;;;;;;;4.47;4.38;;;5.60;79.60;;;;;;4150083;28;20118;-88
2023/02/06 13:01:15;;;;;;;4.03;3.97;;;5.50;77.50;;;;;;4179783;28;20034;-88
2023/02/06 13:03:58;;;;;;;4.82;4.72;;;5.70;76.80;;;;;;4213621;28;20044;-89
2023/02/06 13:06:24;;;;;;;3.92;3.83;;;5.20;77.10;;;;;;4214251;28;20073;-88
2023/02/06 13:08:44;;;;;;;4.63;4.43;;;5.40;78.80;;;;;;4216507;28;20051;-88
2023/02/06 13:11:08;;;;;;;4.75;4.63;;;5.20;78.00;;;;;;4212852;28;20051;-88
2023/02/06 13:13:38;;;;;;;6.63;6.32;;;5.10;76.30;;;;;;4201143;28;20051;-89
2023/02/06 13:16:01;;;;;;;7.20;6.78;;;5.10;78.00;;;;;;4214157;28;20079;-89
2023/02/06 13:18:38;;;;;;;5.43;5.13;;;5.20;79.50;;;;;;4206711;28;20059;-89
2023/02/06 13:21:23;;;;;;;8.18;7.78;;;5.50;78.70;;;;;;4202042;28;20040;-89
2023/02/06 13:24:01;;;;;;;3.08;3.08;;;5.80;78.00;;;;;;4206732;28;20117;-88
2023/02/06 13:26:55;;;;;;;5.25;4.95;;;5.90;78.20;;;;;;4215863;28;20231;-88
2023/02/06 13:29:27;;;;;;;4.43;4.32;;;6.00;79.30;;;;;;4213429;28;20055;-88
2023/02/06 13:31:46;;;;;;;4.07;3.95;;;6.20;80.60;;;;;;4212450;28;20043;-88
2023/02/06 13:34:11;;;;;;;3.33;3.22;;;6.40;77.30;;;;;;4212524;28;20892;-89
2023/02/06 13:36:48;;;;;;;6.35;6.15;;;6.10;76.90;;;;;;4213812;28;20163;-89
2023/02/06 13:39:29;;;;;;;5.10;5.00;;;5.60;77.50;;;;;;4214903;28;20047;-89
2023/02/06 13:41:50;;;;;;;4.78;4.65;;;5.20;76.60;;;;;;4214431;28;20145;-89
2023/02/06 13:44:32;;;;;;;5.20;5.15;;;5.30;77.00;;;;;;4198728;28;20044;-84
2023/02/06 13:47:12;;;;;;;5.00;5.00;;;5.70;77.60;;;;;;4212716;28;20040;-84
2023/02/06 13:49:47;;;;;;;5.38;4.93;;;5.90;77.20;;;;;;4214482;28;20040;-84
2023/02/06 13:52:55;;;;;;;5.93;5.63;;;6.10;79.10;;;;;;4212497;28;20085;-84
2023/02/06 13:55:34;;;;;;;5.75;5.65;;;6.10;75.10;;;;;;4188139;28;20080;-84
2023/02/06 13:58:38;;;;;;;6.43;6.15;;;5.80;74.70;;;;;;4187012;28;20426;-84
2023/02/06 14:00:58;;;;;;;5.07;4.83;;;5.50;73.60;;;;;;4207206;28;20078;-84
2023/02/06 14:03:28;;;;;;;4.18;4.18;;;5.30;74.30;;;;;;4212578;28;20393;-84
2023/02/06 14:06:21;;;;;;;5.28;5.18;;;5.40;76.20;;;;;;4197528;28;20036;-84